Terminal Aerodrome Forecast
Issued by NWS

Home | Current Version | Previous Version | Text Only | Print | Product List | Glossary On
Versions: 1 2 3 4 5 6 7 8 9 10 11 12 13 14 15 16 17 18 19 20 21 22 23 24 25 26 27 28 29 30 31
867
FTUS41 KBUF 261120
TAFJHW
TAF
KJHW 261120Z 2612/2712 26008KT 4SM -SN OVC015
     FM261500 28012KT 6SM -SHSN OVC025
     FM261700 26013G19KT P6SM OVC045
     FM262000 24012KT P6SM SCT045
     FM270000 20008KT P6SM BKN070
     FM270300 21012G23KT P6SM SCT080
      AMD LTD TO CLD VIS AND WIND=

USA.gov is the U.S. government's official web portal to all federal, state and local government web resources and services.